createdAt,value
2022-10-23T00:00:13.333Z,100.00
2022-10-23T00:02:16.100Z,100.00
2022-10-23T00:04:20.760Z,100.00
2022-10-23T00:06:24.137Z,100.00
2022-10-23T00:08:26.858Z,100.00
2022-10-23T00:10:29.939Z,100.00
2022-10-23T00:12:32.727Z,100.00
2022-10-23T00:14:37.098Z,100.00
2022-10-23T00:16:39.784Z,100.00
2022-10-23T00:18:42.849Z,100.00
2022-10-23T00:20:45.514Z,100.00
2022-10-23T00:22:48.218Z,100.00
2022-10-23T00:24:50.924Z,100.00
2022-10-23T00:26:53.644Z,100.00
2022-10-23T00:28:56.839Z,100.00
2022-10-23T00:31:02.981Z,100.00
2022-10-23T00:33:05.711Z,100.00
2022-10-23T00:35:09.013Z,100.00
2022-10-23T00:37:11.693Z,100.00
2022-10-23T00:39:14.502Z,100.00
2022-10-23T00:41:20.168Z,100.00
2022-10-23T00:43:26.396Z,100.00
2022-10-23T00:45:31.679Z,100.00
2022-10-23T00:47:35.761Z,100.00
2022-10-23T00:49:42.036Z,100.00
2022-10-23T00:51:49.566Z,100.00
2022-10-23T00:54:01.378Z,100.00
2022-10-23T00:56:18.647Z,100.00
2022-10-23T00:58:23.482Z,100.00
2022-10-23T01:00:28.192Z,100.00
2022-10-23T01:02:31.004Z,100.00
2022-10-23T01:04:35.838Z,100.00
2022-10-23T01:06:46.213Z,100.00
2022-10-23T01:08:54.725Z,100.00
2022-10-23T01:11:06.321Z,100.00
2022-10-23T01:13:16.344Z,100.00
2022-10-23T01:15:23.070Z,100.00
2022-10-23T01:17:34.529Z,100.00
2022-10-23T01:20:00.108Z,100.00
2022-10-23T01:22:14.123Z,100.00
2022-10-23T01:24:30.841Z,100.00
2022-10-23T01:26:51.245Z,100.00
2022-10-23T01:29:00.914Z,100.00
2022-10-23T01:31:09.064Z,100.00
2022-10-23T01:33:15.802Z,100.00
2022-10-23T01:35:26.748Z,100.00
2022-10-23T01:37:40.972Z,100.00
2022-10-23T01:39:49.225Z,100.00
2022-10-23T01:41:56.268Z,100.00
2022-10-23T01:44:14.642Z,100.00
2022-10-23T01:46:19.037Z,100.00
2022-10-23T01:48:28.078Z,100.00
2022-10-23T01:50:32.523Z,100.00
2022-10-23T01:52:39.006Z,100.00
2022-10-23T01:54:45.247Z,100.00
2022-10-23T01:56:51.297Z,100.00
2022-10-23T01:59:02.419Z,100.00
2022-10-23T02:01:13.597Z,100.00
2022-10-23T02:03:24.669Z,100.00
2022-10-23T02:05:30.074Z,100.00
2022-10-23T02:07:35.613Z,100.00
2022-10-23T02:09:39.604Z,100.00
2022-10-23T02:11:51.594Z,100.00
2022-10-23T02:14:00.672Z,100.00
2022-10-23T02:16:11.610Z,100.00
2022-10-23T02:18:26.486Z,100.00
2022-10-23T02:20:36.868Z,100.00
2022-10-23T02:22:47.649Z,100.00
2022-10-23T02:24:53.788Z,100.00
2022-10-23T02:27:00.434Z,100.00
2022-10-23T02:29:12.151Z,100.00
2022-10-23T02:31:21.036Z,100.00
2022-10-23T02:33:27.694Z,100.00
2022-10-23T02:35:30.644Z,100.00
2022-10-23T02:37:43.313Z,100.00
2022-10-23T02:39:46.766Z,100.00
2022-10-23T02:41:56.646Z,100.00
2022-10-23T02:44:08.673Z,100.00
2022-10-23T02:46:22.250Z,100.00
2022-10-23T02:48:34.195Z,100.00
2022-10-23T02:50:49.799Z,100.00
2022-10-23T02:53:00.650Z,100.00
2022-10-23T02:55:17.957Z,100.00
2022-10-23T02:57:33.244Z,100.00
2022-10-23T02:59:45.244Z,100.00
2022-10-23T03:01:53.588Z,100.00
2022-10-23T03:04:03.022Z,100.00
2022-10-23T03:06:08.743Z,100.00
2022-10-23T03:08:14.922Z,100.00
2022-10-23T03:10:17.872Z,100.00
2022-10-23T03:12:20.939Z,100.00
2022-10-23T03:14:23.735Z,100.00
2022-10-23T03:16:26.896Z,100.00
2022-10-23T03:18:30.991Z,100.00
2022-10-23T03:20:36.857Z,100.00
2022-10-23T03:22:40.565Z,100.00
2022-10-23T03:24:44.339Z,100.00
2022-10-23T03:26:47.213Z,100.00
2022-10-23T03:28:50.242Z,100.00
2022-10-23T03:30:56.096Z,100.00
2022-10-23T03:32:59.380Z,100.00
2022-10-23T03:35:02.300Z,100.00
2022-10-23T03:37:06.508Z,100.00
2022-10-23T03:39:09.677Z,100.00
2022-10-23T03:41:12.537Z,100.00
2022-10-23T03:43:15.331Z,100.00
2022-10-23T03:45:18.217Z,100.00
2022-10-23T03:47:21.240Z,100.00
2022-10-23T03:49:24.045Z,100.00
2022-10-23T03:51:28.076Z,100.00
2022-10-23T03:53:32.416Z,100.00
2022-10-23T03:55:38.000Z,100.00
2022-10-23T03:57:40.722Z,100.00
2022-10-23T03:59:43.422Z,100.00
2022-10-23T04:01:46.712Z,100.00
2022-10-23T04:03:49.563Z,100.00
2022-10-23T04:05:52.508Z,100.00
2022-10-23T04:07:58.151Z,100.00
2022-10-23T04:10:02.758Z,100.00
2022-10-23T04:12:06.483Z,100.00
2022-10-23T04:14:09.221Z,100.00
2022-10-23T04:16:14.026Z,100.00
2022-10-23T04:18:17.064Z,100.00
2022-10-23T04:20:19.923Z,100.00
2022-10-23T04:22:24.785Z,100.00
2022-10-23T04:24:30.491Z,100.00
2022-10-23T04:26:34.609Z,100.00
2022-10-23T04:28:37.326Z,100.00
2022-10-23T04:30:40.272Z,100.00
2022-10-23T04:32:46.159Z,100.00
2022-10-23T04:34:49.205Z,100.00
2022-10-23T04:36:52.004Z,100.00
2022-10-23T04:38:54.834Z,100.00
2022-10-23T04:40:57.686Z,100.00
2022-10-23T04:43:02.366Z,100.00
2022-10-23T04:45:09.544Z,100.00
2022-10-23T04:47:12.742Z,100.00
2022-10-23T04:49:27.645Z,100.00
2022-10-23T04:51:48.928Z,100.00
2022-10-23T04:54:10.515Z,100.00
2022-10-23T04:56:16.690Z,100.00
2022-10-23T04:58:27.437Z,100.00
2022-10-23T05:00:32.541Z,100.00
2022-10-23T05:02:35.481Z,100.00
2022-10-23T05:04:38.266Z,100.00
2022-10-23T05:06:59.755Z,100.00
2022-10-23T05:09:14.967Z,100.00
2022-10-23T05:11:43.996Z,100.00
2022-10-23T05:13:48.183Z,100.00
2022-10-23T05:15:51.854Z,100.00
2022-10-23T05:18:00.013Z,100.00
2022-10-23T05:20:06.543Z,100.00
2022-10-23T05:22:11.144Z,100.00
2022-10-23T05:24:27.473Z,100.00
2022-10-23T05:26:36.260Z,100.00
2022-10-23T05:28:43.046Z,100.00
2022-10-23T05:30:51.355Z,100.00
2022-10-23T05:32:55.344Z,100.00
2022-10-23T05:35:09.150Z,100.00
2022-10-23T05:37:16.495Z,100.00
2022-10-23T05:39:21.434Z,100.00
2022-10-23T05:41:24.230Z,100.00
2022-10-23T05:43:27.370Z,100.00
2022-10-23T05:45:44.649Z,100.00
2022-10-23T05:48:11.029Z,100.00
2022-10-23T05:50:43.686Z,100.00
2022-10-23T05:52:53.827Z,100.00
2022-10-23T05:55:10.851Z,100.00
2022-10-23T05:57:39.925Z,100.00
2022-10-23T05:59:46.507Z,100.00
2022-10-23T06:02:01.675Z,100.00
2022-10-23T06:04:16.081Z,100.00
2022-10-23T06:06:57.122Z,100.00
2022-10-23T06:09:00.297Z,100.00
2022-10-23T06:11:08.024Z,100.00
2022-10-23T06:13:11.628Z,100.00
2022-10-23T06:15:14.589Z,100.00
2022-10-23T06:17:32.927Z,100.00
2022-10-23T06:19:37.401Z,100.00
2022-10-23T06:21:41.173Z,100.00
2022-10-23T06:23:47.337Z,100.00
2022-10-23T06:26:18.684Z,100.00
2022-10-23T06:28:44.803Z,100.00
2022-10-23T06:30:47.597Z,100.00
2022-10-23T06:32:52.039Z,100.00
2022-10-23T06:34:56.507Z,100.00
2022-10-23T06:36:59.281Z,100.00
2022-10-23T06:39:14.641Z,100.00
2022-10-23T06:41:44.339Z,100.00
2022-10-23T06:43:53.377Z,100.00
2022-10-23T06:46:02.723Z,100.00
2022-10-23T06:48:32.578Z,100.00
2022-10-23T06:50:40.396Z,100.00
2022-10-23T06:52:48.143Z,100.00
2022-10-23T06:54:54.289Z,100.00
2022-10-23T06:57:01.172Z,100.00
2022-10-23T06:59:16.689Z,100.00
2022-10-23T07:01:19.953Z,100.00
2022-10-23T07:03:22.987Z,100.00
2022-10-23T07:05:25.759Z,100.00
2022-10-23T07:07:32.808Z,100.00
2022-10-23T07:09:36.891Z,100.00
2022-10-23T07:12:14.994Z,100.00
2022-10-23T07:14:24.566Z,100.00
2022-10-23T07:16:27.514Z,100.00
2022-10-23T07:18:32.237Z,100.00
2022-10-23T07:20:59.415Z,100.00
2022-10-23T07:23:03.755Z,100.00
2022-10-23T07:25:12.371Z,100.00
2022-10-23T07:27:15.581Z,100.00
2022-10-23T07:29:19.308Z,100.00
2022-10-23T07:31:27.278Z,100.00
2022-10-23T07:33:50.140Z,100.00
2022-10-23T07:35:55.283Z,100.00
2022-10-23T07:38:04.474Z,100.00
2022-10-23T07:40:11.877Z,100.00
2022-10-23T07:42:19.973Z,100.00
2022-10-23T07:44:25.714Z,100.00
2022-10-23T07:46:31.453Z,100.00
2022-10-23T07:48:34.208Z,100.00
2022-10-23T07:50:38.930Z,100.00
2022-10-23T07:52:42.243Z,100.00
2022-10-23T07:54:53.518Z,100.00
2022-10-23T07:56:57.331Z,100.00
2022-10-23T07:59:12.674Z,100.00
2022-10-23T08:01:21.813Z,100.00
2022-10-23T08:03:25.840Z,100.00
2022-10-23T08:05:29.296Z,100.00
2022-10-23T08:07:36.735Z,100.00
2022-10-23T08:09:39.747Z,100.00
2022-10-23T08:11:45.456Z,100.00
2022-10-23T08:13:51.935Z,100.00
2022-10-23T08:15:55.928Z,100.00
2022-10-23T08:18:24.856Z,100.00
2022-10-23T08:20:28.472Z,100.00
2022-10-23T08:22:31.222Z,100.00
2022-10-23T08:24:34.126Z,100.00
2022-10-23T08:26:36.903Z,100.00
2022-10-23T08:28:41.670Z,100.00
2022-10-23T08:30:44.548Z,100.00
2022-10-23T08:32:48.281Z,100.00
2022-10-23T08:34:51.782Z,100.00
2022-10-23T08:36:55.139Z,100.00
2022-10-23T08:38:59.777Z,100.00
2022-10-23T08:41:04.480Z,100.00
2022-10-23T08:43:34.694Z,100.00
2022-10-23T08:45:59.541Z,100.00
2022-10-23T08:48:32.501Z,100.00
2022-10-23T08:50:59.588Z,100.00
2022-10-23T08:53:06.257Z,100.00
2022-10-23T08:55:17.644Z,100.00
2022-10-23T08:57:24.849Z,100.00
2022-10-23T08:59:33.185Z,100.00
2022-10-23T09:01:41.902Z,100.00
2022-10-23T09:03:45.446Z,100.00
2022-10-23T09:06:14.488Z,100.00
2022-10-23T09:08:31.557Z,100.00
2022-10-23T09:10:52.687Z,100.00
2022-10-23T09:12:58.785Z,100.00
2022-10-23T09:15:25.066Z,100.00
2022-10-23T09:17:31.686Z,100.00
2022-10-23T09:19:34.605Z,100.00
2022-10-23T09:21:37.585Z,100.00
2022-10-23T09:23:40.718Z,96.59
2022-10-23T09:25:45.082Z,94.02
2022-10-23T09:27:53.196Z,91.49
2022-10-23T09:29:59.451Z,92.92
2022-10-23T09:32:04.182Z,90.34
2022-10-23T09:34:20.444Z,90.32
2022-10-23T09:36:25.962Z,90.50
2022-10-23T09:38:31.573Z,92.16
2022-10-23T09:40:41.702Z,91.83
2022-10-23T09:42:56.842Z,89.72
2022-10-23T09:44:59.854Z,88.29
2022-10-23T09:47:12.310Z,87.23
2022-10-23T09:49:22.689Z,85.53
2022-10-23T09:51:25.682Z,87.89
2022-10-23T09:53:35.078Z,88.78
2022-10-23T09:55:37.863Z,87.13
2022-10-23T09:57:43.586Z,86.20
2022-10-23T09:59:52.290Z,88.08
2022-10-23T10:01:58.448Z,89.09
2022-10-23T10:04:38.175Z,89.63
2022-10-23T10:08:49.732Z,91.38
2022-10-23T10:10:55.150Z,90.91
2022-10-23T10:13:02.602Z,91.15
2022-10-23T10:15:19.237Z,90.99
2022-10-23T10:17:33.967Z,89.36
2022-10-23T10:20:05.408Z,89.85
2022-10-23T10:22:26.116Z,89.10
2022-10-23T10:24:35.785Z,89.48
2022-10-23T10:26:52.070Z,87.94
2022-10-23T10:29:03.644Z,87.73
2022-10-23T10:31:16.471Z,87.98
2022-10-23T10:33:25.914Z,87.82
2022-10-23T10:35:41.069Z,87.36
2022-10-23T10:37:59.287Z,87.81
2022-10-23T10:40:11.405Z,88.56
2022-10-23T10:42:39.361Z,88.14
2022-10-23T10:44:51.737Z,88.63
2022-10-23T10:47:00.019Z,87.02
2022-10-23T10:49:17.574Z,85.27
2022-10-23T10:51:53.198Z,87.38
2022-10-23T10:54:32.109Z,84.29
2022-10-23T10:56:39.536Z,83.63
2022-10-23T10:58:48.400Z,83.19
2022-10-23T11:00:57.127Z,84.09
2022-10-23T11:03:07.135Z,84.58
2022-10-23T11:05:21.007Z,83.69
2022-10-23T11:07:30.629Z,83.84
2022-10-23T11:09:33.532Z,83.79
2022-10-23T11:11:40.583Z,83.54
2022-10-23T11:13:45.192Z,81.54
2022-10-23T11:15:49.941Z,84.70
2022-10-23T11:17:57.351Z,84.98
2022-10-23T11:20:06.830Z,84.61
2022-10-23T11:22:18.097Z,84.78
2022-10-23T11:24:55.740Z,83.19
2022-10-23T11:27:20.178Z,82.23
2022-10-23T11:29:43.767Z,83.24
2022-10-23T11:31:58.821Z,84.69
2022-10-23T11:34:26.540Z,83.59
2022-10-23T11:36:45.535Z,82.01
2022-10-23T11:38:50.962Z,84.60
2022-10-23T11:40:56.059Z,82.95
2022-10-23T11:43:00.464Z,83.66
2022-10-23T11:45:03.452Z,84.56
2022-10-23T11:47:26.326Z,83.18
2022-10-23T11:49:29.123Z,81.60
2022-10-23T11:51:33.994Z,81.17
2022-10-23T11:53:41.667Z,80.69
2022-10-23T11:55:59.151Z,80.68
2022-10-23T11:58:20.490Z,78.71
2022-10-23T12:00:24.561Z,77.14
2022-10-23T12:02:32.586Z,78.82
2022-10-23T12:04:41.226Z,76.69
2022-10-23T12:06:48.523Z,76.53
2022-10-23T12:08:54.673Z,77.97
2022-10-23T12:10:57.482Z,78.71
2022-10-23T12:13:03.738Z,77.74
2022-10-23T12:15:20.921Z,77.26
2022-10-23T12:17:36.852Z,75.75
2022-10-23T12:19:49.417Z,75.30
2022-10-23T12:21:53.767Z,76.85
2022-10-23T12:24:23.328Z,77.54
2022-10-23T12:26:45.786Z,73.19
2022-10-23T12:28:58.085Z,76.48
2022-10-23T12:31:18.120Z,74.89
2022-10-23T12:33:30.430Z,74.51
2022-10-23T12:35:56.484Z,71.34
2022-10-23T12:38:12.184Z,70.11
2022-10-23T12:40:14.826Z,71.09
2022-10-23T12:42:23.510Z,69.65
2022-10-23T12:44:26.797Z,65.04
2022-10-23T12:46:35.401Z,65.00
2022-10-23T12:48:48.861Z,66.70
2022-10-23T12:50:54.046Z,66.68
2022-10-23T12:53:00.946Z,67.68
2022-10-23T12:55:13.796Z,67.58
2022-10-23T12:57:21.976Z,65.19
2022-10-23T12:59:28.128Z,60.67
2022-10-23T13:01:33.955Z,59.32
2022-10-23T13:03:37.927Z,58.28
2022-10-23T13:05:41.592Z,56.53
2022-10-23T13:07:47.434Z,56.38
2022-10-23T13:09:54.128Z,52.81
2022-10-23T13:12:16.841Z,53.85
2022-10-23T13:14:32.426Z,55.49
2022-10-23T13:16:36.601Z,57.62
2022-10-23T13:18:41.722Z,60.35
2022-10-23T13:20:56.986Z,59.87
2022-10-23T13:23:02.796Z,56.81
2022-10-23T13:25:22.123Z,57.72
2022-10-23T13:27:33.839Z,58.03
2022-10-23T13:29:36.555Z,58.64
2022-10-23T13:31:40.657Z,59.16
2022-10-23T13:33:44.637Z,60.00
2022-10-23T13:35:56.867Z,62.63
2022-10-23T13:38:09.396Z,65.02
2022-10-23T13:40:23.428Z,67.42
2022-10-23T13:42:26.247Z,67.74
2022-10-23T13:44:29.001Z,67.93
2022-10-23T13:46:31.832Z,67.42
2022-10-23T13:48:36.098Z,68.69
2022-10-23T13:50:38.831Z,69.43
2022-10-23T13:52:41.569Z,71.55
2022-10-23T13:54:44.453Z,72.58
2022-10-23T13:56:47.767Z,71.71
2022-10-23T13:58:50.965Z,71.33
2022-10-23T14:00:55.453Z,72.38
2022-10-23T14:02:58.222Z,73.66
2022-10-23T14:05:02.199Z,76.06
2022-10-23T14:07:04.857Z,75.34
2022-10-23T14:09:08.820Z,76.93
2022-10-23T14:11:12.378Z,76.89
2022-10-23T14:13:15.032Z,78.71
2022-10-23T14:15:17.737Z,79.45
2022-10-23T14:17:20.416Z,78.58
2022-10-23T14:19:23.172Z,79.68
2022-10-23T14:21:27.463Z,79.82
2022-10-23T14:23:30.303Z,79.70
2022-10-23T14:25:33.065Z,77.86
2022-10-23T14:27:35.846Z,78.12
2022-10-23T14:29:38.797Z,79.60
2022-10-23T14:31:41.563Z,81.52
2022-10-23T14:33:44.709Z,82.99
2022-10-23T14:35:47.393Z,83.85
2022-10-23T14:37:51.402Z,84.54
2022-10-23T14:39:54.057Z,84.78
2022-10-23T14:41:56.728Z,83.98
2022-10-23T14:43:59.424Z,82.08
2022-10-23T14:46:09.647Z,79.02
2022-10-23T14:48:12.325Z,74.85
2022-10-23T14:50:16.225Z,73.42
2022-10-23T14:52:19.074Z,71.72
2022-10-23T14:54:23.097Z,71.04
2022-10-23T14:56:25.939Z,70.88
2022-10-23T14:58:28.753Z,71.38
2022-10-23T15:00:31.476Z,70.94
2022-10-23T15:02:35.037Z,72.13
2022-10-23T15:04:37.760Z,74.00
2022-10-23T15:06:40.475Z,75.99
2022-10-23T15:08:43.143Z,77.65
2022-10-23T15:10:47.146Z,79.54
2022-10-23T15:12:49.804Z,81.58
2022-10-23T15:14:52.632Z,82.21
2022-10-23T15:16:55.371Z,82.83
2022-10-23T15:18:58.109Z,83.64
2022-10-23T15:21:00.975Z,85.45
2022-10-23T15:23:03.872Z,87.79
2022-10-23T15:25:07.858Z,89.25
2022-10-23T15:27:11.872Z,91.44
2022-10-23T15:29:15.833Z,94.13
2022-10-23T15:31:43.548Z,96.56
2022-10-23T15:33:46.185Z,98.10
2022-10-23T15:35:48.982Z,100.00
2022-10-23T15:37:51.764Z,100.00
2022-10-23T15:39:57.170Z,100.00
2022-10-23T15:42:04.943Z,100.00
2022-10-23T15:44:12.253Z,100.00
2022-10-23T15:46:14.957Z,100.00
2022-10-23T15:48:17.653Z,100.00
2022-10-23T15:50:20.411Z,100.00
2022-10-23T15:52:23.071Z,100.00
2022-10-23T15:54:28.190Z,100.00
2022-10-23T15:56:33.535Z,100.00
2022-10-23T15:58:36.706Z,100.00
2022-10-23T16:00:41.063Z,100.00
2022-10-23T16:02:44.254Z,100.00
2022-10-23T16:04:47.258Z,100.00
2022-10-23T16:06:50.211Z,100.00
2022-10-23T16:10:56.783Z,100.00
2022-10-23T16:12:59.515Z,100.00
2022-10-23T16:15:02.171Z,100.00
2022-10-23T16:17:07.526Z,100.00
2022-10-23T16:19:11.551Z,100.00
2022-10-23T16:21:20.521Z,100.00
2022-10-23T16:23:23.361Z,100.00
2022-10-23T16:25:26.103Z,100.00
2022-10-23T16:27:28.862Z,100.00
2022-10-23T16:29:31.658Z,100.00
2022-10-23T16:31:35.519Z,100.00
2022-10-23T16:33:39.829Z,100.00
2022-10-23T16:35:42.540Z,100.00
2022-10-23T16:37:52.620Z,100.00
2022-10-23T16:39:57.125Z,100.00
2022-10-23T16:44:44.048Z,100.00
2022-10-23T16:46:46.769Z,100.00
2022-10-23T16:48:51.849Z,100.00
2022-10-23T16:50:54.576Z,100.00
2022-10-23T16:52:57.306Z,100.00
2022-10-23T16:55:00.055Z,100.00
2022-10-23T16:57:02.797Z,100.00
2022-10-23T16:59:05.546Z,100.00
2022-10-23T17:01:10.038Z,99.76
2022-10-23T17:03:12.819Z,98.35
2022-10-23T17:05:17.021Z,98.39
2022-10-23T17:07:19.742Z,96.66
2022-10-23T17:09:23.534Z,97.60
2022-10-23T17:11:28.292Z,96.00
2022-10-23T17:13:31.077Z,97.21
2022-10-23T17:15:33.849Z,95.06
2022-10-23T17:17:36.637Z,94.38
2022-10-23T17:19:45.677Z,92.14
2022-10-23T17:21:50.290Z,91.59
2022-10-23T17:23:53.592Z,90.68
2022-10-23T17:25:56.480Z,88.13
2022-10-23T17:27:59.170Z,89.27
2022-10-23T17:30:01.899Z,87.08
2022-10-23T17:32:05.294Z,87.50
2022-10-23T17:34:12.555Z,86.79
2022-10-23T17:36:17.391Z,88.47
2022-10-23T17:38:21.482Z,87.95
2022-10-23T17:40:25.667Z,90.29
2022-10-23T17:42:28.401Z,87.99
2022-10-23T17:44:31.132Z,87.24
2022-10-23T17:46:33.841Z,88.46
2022-10-23T17:48:36.906Z,88.39
2022-10-23T17:50:40.108Z,87.83
2022-10-23T17:52:43.366Z,84.39
2022-10-23T17:54:47.656Z,85.15
2022-10-23T17:56:50.373Z,84.99
2022-10-23T17:58:55.084Z,85.67
2022-10-23T18:00:57.943Z,86.48
2022-10-23T18:03:00.672Z,87.60
2022-10-23T18:05:03.392Z,87.09
2022-10-23T18:07:06.128Z,86.75
2022-10-23T18:09:08.897Z,85.97
2022-10-23T18:11:17.982Z,84.66
2022-10-23T18:13:20.659Z,85.37
2022-10-23T18:15:23.354Z,85.71
2022-10-23T18:17:26.069Z,86.13
2022-10-23T18:19:29.630Z,87.66
2022-10-23T18:21:32.956Z,90.64
2022-10-23T18:23:36.630Z,91.35
2022-10-23T18:25:43.548Z,90.69
2022-10-23T18:27:47.526Z,89.79
2022-10-23T18:29:50.885Z,89.55
2022-10-23T18:31:53.601Z,90.52
2022-10-23T18:33:57.620Z,90.94
2022-10-23T18:36:00.283Z,91.92
2022-10-23T18:38:03.896Z,91.75
2022-10-23T18:40:07.649Z,92.05
2022-10-23T18:42:10.392Z,93.34
2022-10-23T18:44:18.386Z,94.31
2022-10-23T18:46:21.989Z,93.75
2022-10-23T18:48:24.636Z,92.37
2022-10-23T18:50:27.848Z,91.82
2022-10-23T18:52:30.512Z,94.04
2022-10-23T18:54:33.220Z,92.75
2022-10-23T18:56:38.200Z,92.74
2022-10-23T18:58:41.013Z,92.46
2022-10-23T19:00:47.675Z,92.51
2022-10-23T19:02:52.358Z,93.15
2022-10-23T19:04:55.548Z,93.56
2022-10-23T19:06:58.308Z,94.01
2022-10-23T19:09:01.035Z,94.68
2022-10-23T19:11:05.090Z,95.44
2022-10-23T19:13:07.869Z,97.02
2022-10-23T19:15:11.317Z,97.39
2022-10-23T19:17:19.630Z,97.89
2022-10-23T19:19:25.905Z,98.76
2022-10-23T19:21:33.298Z,98.43
2022-10-23T19:23:38.621Z,100.00
2022-10-23T19:25:41.411Z,100.00
2022-10-23T19:27:46.730Z,100.00
2022-10-23T19:29:52.728Z,100.00
2022-10-23T19:31:55.732Z,100.00
2022-10-23T19:33:59.815Z,100.00
2022-10-23T19:36:05.441Z,100.00
2022-10-23T19:38:08.807Z,100.00
2022-10-23T19:40:13.245Z,100.00
2022-10-23T19:42:16.350Z,100.00
2022-10-23T19:44:20.008Z,100.00
2022-10-23T19:46:23.038Z,100.00
2022-10-23T19:48:25.891Z,100.00
2022-10-23T19:50:30.113Z,100.00
2022-10-23T19:52:33.917Z,100.00
2022-10-23T19:54:37.701Z,100.00
2022-10-23T19:56:41.128Z,100.00
2022-10-23T19:58:43.885Z,100.00
2022-10-23T20:00:46.611Z,100.00
2022-10-23T20:02:51.463Z,100.00
2022-10-23T20:04:57.147Z,100.00
2022-10-23T20:07:01.409Z,100.00
2022-10-23T20:09:07.954Z,100.00
2022-10-23T20:11:19.397Z,100.00
2022-10-23T20:13:23.526Z,100.00
2022-10-23T20:15:26.438Z,99.77
2022-10-23T20:17:29.186Z,100.00
2022-10-23T20:19:32.024Z,99.37
2022-10-23T20:21:36.933Z,99.08
2022-10-23T20:23:41.193Z,98.58
2022-10-23T20:25:44.419Z,98.45
2022-10-23T20:27:47.151Z,97.85
2022-10-23T20:29:49.994Z,97.43
2022-10-23T20:31:53.390Z,97.65
2022-10-23T20:33:57.347Z,97.62
2022-10-23T20:36:00.061Z,97.83
2022-10-23T20:38:02.785Z,97.42
2022-10-23T20:40:08.269Z,97.90
2022-10-23T20:42:10.936Z,98.11
2022-10-23T20:46:23.791Z,98.79
2022-10-23T20:48:26.675Z,98.27
2022-10-23T20:50:29.452Z,98.56
2022-10-23T20:54:38.199Z,96.64
2022-10-23T20:56:42.337Z,98.70
2022-10-23T20:58:45.268Z,98.85
2022-10-23T21:00:48.051Z,98.81
2022-10-23T21:02:52.588Z,98.48
2022-10-23T21:04:55.617Z,98.16
2022-10-23T21:07:16.417Z,98.46
2022-10-23T21:09:19.636Z,98.23
2022-10-23T21:11:22.653Z,98.86
2022-10-23T21:13:27.140Z,98.88
2022-10-23T21:15:29.867Z,98.12
2022-10-23T21:17:35.742Z,98.54
2022-10-23T21:19:39.747Z,98.36
2022-10-23T21:21:42.878Z,97.76
2022-10-23T21:23:46.277Z,97.72
2022-10-23T21:25:49.310Z,97.51
2022-10-23T21:27:52.190Z,97.00
2022-10-23T21:29:56.365Z,96.92
2022-10-23T21:32:01.459Z,96.94
2022-10-23T21:34:04.495Z,96.98
2022-10-23T21:36:15.123Z,96.66
2022-10-23T21:38:17.842Z,96.57
2022-10-23T21:40:20.576Z,95.93
2022-10-23T21:42:23.342Z,95.38
2022-10-23T21:44:26.084Z,95.17
2022-10-23T21:46:31.530Z,94.54
2022-10-23T21:48:34.672Z,94.78
2022-10-23T21:50:37.596Z,94.65
2022-10-23T21:52:41.391Z,94.16
2022-10-23T21:54:44.334Z,94.22
2022-10-23T21:56:48.889Z,94.13
2022-10-23T21:58:51.803Z,93.81
2022-10-23T22:00:54.444Z,93.97
2022-10-23T22:02:58.469Z,94.09
2022-10-23T22:05:01.150Z,94.44
2022-10-23T22:07:03.832Z,94.64
2022-10-23T22:09:07.098Z,94.61
2022-10-23T22:11:09.909Z,94.46
2022-10-23T22:13:12.559Z,94.35
2022-10-23T22:15:15.239Z,94.51
2022-10-23T22:17:18.021Z,94.92
2022-10-23T22:19:23.351Z,94.82
2022-10-23T22:21:28.322Z,95.10
2022-10-23T22:23:31.364Z,95.21
2022-10-23T22:25:34.076Z,95.14
2022-10-23T22:27:38.445Z,95.09
2022-10-23T22:29:41.201Z,95.73
2022-10-23T22:31:47.306Z,95.83
2022-10-23T22:33:53.940Z,95.36
2022-10-23T22:36:02.962Z,96.47
2022-10-23T22:38:05.784Z,96.15
2022-10-23T22:40:09.628Z,96.06
2022-10-23T22:42:12.367Z,95.81
2022-10-23T22:44:16.231Z,95.66
2022-10-23T22:46:20.146Z,96.13
2022-10-23T22:48:23.050Z,96.41
2022-10-23T22:50:25.825Z,97.06
2022-10-23T22:52:30.369Z,97.63
2022-10-23T22:54:33.203Z,97.47
2022-10-23T22:56:36.185Z,97.87
2022-10-23T22:58:38.978Z,98.53
2022-10-23T23:00:43.576Z,98.93
2022-10-23T23:02:46.544Z,99.65
2022-10-23T23:04:49.261Z,100.00
2022-10-23T23:06:51.965Z,100.00
2022-10-23T23:08:56.498Z,100.00
2022-10-23T23:10:59.953Z,100.00
2022-10-23T23:13:02.670Z,100.00
2022-10-23T23:15:06.461Z,100.00
2022-10-23T23:17:10.431Z,100.00
2022-10-23T23:19:13.229Z,100.00
2022-10-23T23:21:17.111Z,100.00
2022-10-23T23:23:20.798Z,100.00
2022-10-23T23:25:24.982Z,100.00
2022-10-23T23:27:28.203Z,100.00
2022-10-23T23:29:31.030Z,100.00
2022-10-23T23:31:33.809Z,100.00
2022-10-23T23:33:37.026Z,100.00
2022-10-23T23:35:41.218Z,100.00
2022-10-23T23:37:44.077Z,100.00
2022-10-23T23:39:46.965Z,100.00
2022-10-23T23:41:51.184Z,100.00
2022-10-23T23:43:55.051Z,100.00
2022-10-23T23:45:58.288Z,100.00
2022-10-23T23:48:01.049Z,100.00
2022-10-23T23:50:05.350Z,100.00
2022-10-23T23:52:08.140Z,100.00
2022-10-23T23:54:10.993Z,100.00
2022-10-23T23:56:14.346Z,100.00
2022-10-23T23:58:18.607Z,100.00
